sensor_id;sensor_type;location;lat;lon;timestamp;pressure;altitude;pressure_sealevel;temperature;humidity
60417;BME280;46263;44.726;10.396;2023-03-01T00:01:48;100973.06;;;8.21;62.73
60417;BME280;46263;44.726;10.396;2023-03-01T00:04:14;100968.31;;;8.27;62.78
60417;BME280;46263;44.726;10.396;2023-03-01T00:06:39;100965.00;;;8.23;62.11
60417;BME280;46263;44.726;10.396;2023-03-01T00:09:05;100969.56;;;8.26;61.12
60417;BME280;46263;44.726;10.396;2023-03-01T00:11:32;100963.53;;;8.33;61.77
60417;BME280;46263;44.726;10.396;2023-03-01T00:13:58;100961.31;;;8.37;61.21
60417;BME280;46263;44.726;10.396;2023-03-01T00:16:32;100948.88;;;8.32;61.20
60417;BME280;46263;44.726;10.396;2023-03-01T00:19:01;100958.78;;;8.13;61.69
60417;BME280;46263;44.726;10.396;2023-03-01T00:21:27;100954.16;;;8.05;61.68
60417;BME280;46263;44.726;10.396;2023-03-01T00:23:54;100957.91;;;8.02;62.37
60417;BME280;46263;44.726;10.396;2023-03-01T00:26:23;100953.06;;;7.97;61.72
60417;BME280;46263;44.726;10.396;2023-03-01T00:28:49;100958.34;;;7.95;61.72
60417;BME280;46263;44.726;10.396;2023-03-01T00:31:17;100950.06;;;8.00;61.16
60417;BME280;46263;44.726;10.396;2023-03-01T00:33:44;100955.63;;;8.00;61.30
60417;BME280;46263;44.726;10.396;2023-03-01T00:36:10;100948.53;;;7.99;61.76
60417;BME280;46263;44.726;10.396;2023-03-01T00:38:41;100950.38;;;8.08;60.87
60417;BME280;46263;44.726;10.396;2023-03-01T00:41:12;100955.94;;;8.08;61.67
60417;BME280;46263;44.726;10.396;2023-03-01T00:43:38;100941.56;;;8.09;62.46
60417;BME280;46263;44.726;10.396;2023-03-01T00:46:05;100939.47;;;8.04;61.35
60417;BME280;46263;44.726;10.396;2023-03-01T00:48:31;100946.91;;;8.13;61.87
60417;BME280;46263;44.726;10.396;2023-03-01T00:51:07;100948.66;;;8.10;61.84
60417;BME280;46263;44.726;10.396;2023-03-01T00:53:33;100945.09;;;8.10;61.45
60417;BME280;46263;44.726;10.396;2023-03-01T00:55:59;100944.34;;;8.09;61.29
60417;BME280;46263;44.726;10.396;2023-03-01T00:58:24;100938.53;;;8.13;61.34
60417;BME280;46263;44.726;10.396;2023-03-01T01:00:50;100932.00;;;8.16;60.29
60417;BME280;46263;44.726;10.396;2023-03-01T01:03:17;100933.72;;;8.13;59.89
60417;BME280;46263;44.726;10.396;2023-03-01T01:05:43;100923.94;;;8.18;59.59
60417;BME280;46263;44.726;10.396;2023-03-01T01:08:08;100910.78;;;8.18;59.11
60417;BME280;46263;44.726;10.396;2023-03-01T01:10:34;100914.25;;;8.13;59.32
60417;BME280;46263;44.726;10.396;2023-03-01T01:13:00;100906.06;;;8.04;59.50
60417;BME280;46263;44.726;10.396;2023-03-01T01:15:26;100916.59;;;8.15;58.63
60417;BME280;46263;44.726;10.396;2023-03-01T01:17:52;100910.72;;;8.13;58.09
60417;BME280;46263;44.726;10.396;2023-03-01T01:20:17;100903.34;;;8.10;57.96
60417;BME280;46263;44.726;10.396;2023-03-01T01:22:43;100899.28;;;8.11;57.84
60417;BME280;46263;44.726;10.396;2023-03-01T01:25:09;100881.63;;;8.14;57.65
60417;BME280;46263;44.726;10.396;2023-03-01T01:27:34;100874.59;;;8.18;58.58
60417;BME280;46263;44.726;10.396;2023-03-01T01:30:00;100867.28;;;8.21;57.87
60417;BME280;46263;44.726;10.396;2023-03-01T01:32:25;100873.59;;;8.21;58.60
60417;BME280;46263;44.726;10.396;2023-03-01T01:34:51;100873.88;;;8.23;58.23
60417;BME280;46263;44.726;10.396;2023-03-01T01:37:16;100862.69;;;8.18;58.01
60417;BME280;46263;44.726;10.396;2023-03-01T01:39:42;100864.91;;;8.14;58.17
60417;BME280;46263;44.726;10.396;2023-03-01T01:42:15;100868.53;;;8.20;57.80
60417;BME280;46263;44.726;10.396;2023-03-01T01:44:44;100857.13;;;8.18;57.20
60417;BME280;46263;44.726;10.396;2023-03-01T01:47:14;100860.69;;;8.18;56.97
60417;BME280;46263;44.726;10.396;2023-03-01T01:49:46;100862.97;;;8.20;58.66
60417;BME280;46263;44.726;10.396;2023-03-01T01:52:17;100861.44;;;8.19;57.72
60417;BME280;46263;44.726;10.396;2023-03-01T01:54:52;100858.44;;;8.22;58.51
60417;BME280;46263;44.726;10.396;2023-03-01T01:57:43;100858.69;;;8.24;58.18
60417;BME280;46263;44.726;10.396;2023-03-01T02:00:14;100851.31;;;8.21;58.63
60417;BME280;46263;44.726;10.396;2023-03-01T02:02:41;100850.84;;;8.23;57.63
60417;BME280;46263;44.726;10.396;2023-03-01T02:05:17;100851.31;;;8.21;57.32
60417;BME280;46263;44.726;10.396;2023-03-01T02:07:48;100856.41;;;8.23;57.89
60417;BME280;46263;44.726;10.396;2023-03-01T02:10:14;100847.00;;;8.20;56.56
60417;BME280;46263;44.726;10.396;2023-03-01T02:12:40;100840.69;;;8.20;57.94
60417;BME280;46263;44.726;10.396;2023-03-01T02:15:06;100842.53;;;8.28;57.63
60417;BME280;46263;44.726;10.396;2023-03-01T02:17:32;100834.16;;;8.23;57.87
60417;BME280;46263;44.726;10.396;2023-03-01T02:22:32;100832.16;;;8.29;57.34
60417;BME280;46263;44.726;10.396;2023-03-01T02:27:33;100822.00;;;8.26;56.26
60417;BME280;46263;44.726;10.396;2023-03-01T02:30:02;100813.19;;;8.27;56.19
60417;BME280;46263;44.726;10.396;2023-03-01T02:32:28;100812.66;;;8.29;55.10
60417;BME280;46263;44.726;10.396;2023-03-01T02:34:55;100817.75;;;8.30;54.70
60417;BME280;46263;44.726;10.396;2023-03-01T02:37:21;100812.66;;;8.29;56.17
60417;BME280;46263;44.726;10.396;2023-03-01T02:39:53;100810.13;;;8.25;56.11
60417;BME280;46263;44.726;10.396;2023-03-01T02:42:26;100806.84;;;8.27;56.94
60417;BME280;46263;44.726;10.396;2023-03-01T02:44:56;100805.84;;;8.30;56.00
60417;BME280;46263;44.726;10.396;2023-03-01T02:47:21;100797.22;;;8.28;55.21
60417;BME280;46263;44.726;10.396;2023-03-01T02:49:47;100795.69;;;8.27;55.10
60417;BME280;46263;44.726;10.396;2023-03-01T02:52:28;100788.91;;;8.33;54.90
60417;BME280;46263;44.726;10.396;2023-03-01T02:55:03;100784.38;;;8.36;54.41
60417;BME280;46263;44.726;10.396;2023-03-01T02:57:32;100784.38;;;8.36;54.71
60417;BME280;46263;44.726;10.396;2023-03-01T03:00:03;100788.69;;;8.37;55.70
60417;BME280;46263;44.726;10.396;2023-03-01T03:02:32;100781.81;;;8.32;56.93
60417;BME280;46263;44.726;10.396;2023-03-01T03:05:13;100774.41;;;8.24;56.88
60417;BME280;46263;44.726;10.396;2023-03-01T03:07:41;100778.00;;;8.30;56.67
60417;BME280;46263;44.726;10.396;2023-03-01T03:10:10;100778.00;;;8.30;55.60
60417;BME280;46263;44.726;10.396;2023-03-01T03:12:37;100775.69;;;8.28;57.55
60417;BME280;46263;44.726;10.396;2023-03-01T03:15:04;100769.06;;;8.20;57.91
60417;BME280;46263;44.726;10.396;2023-03-01T03:17:35;100771.84;;;8.20;58.59
60417;BME280;46263;44.726;10.396;2023-03-01T03:20:03;100763.50;;;8.15;58.87
60417;BME280;46263;44.726;10.396;2023-03-01T03:22:29;100760.41;;;8.13;59.16
60417;BME280;46263;44.726;10.396;2023-03-01T03:24:54;100764.00;;;8.19;57.01
60417;BME280;46263;44.726;10.396;2023-03-01T03:27:20;100758.22;;;8.22;56.66
60417;BME280;46263;44.726;10.396;2023-03-01T03:29:45;100765.06;;;8.27;55.70
60417;BME280;46263;44.726;10.396;2023-03-01T03:32:11;100768.84;;;8.24;56.24
60417;BME280;46263;44.726;10.396;2023-03-01T03:34:36;100771.66;;;8.29;57.52
60417;BME280;46263;44.726;10.396;2023-03-01T03:37:01;100766.59;;;8.28;58.06
60417;BME280;46263;44.726;10.396;2023-03-01T03:39:27;100762.28;;;8.27;58.21
60417;BME280;46263;44.726;10.396;2023-03-01T03:41:54;100755.19;;;8.26;55.75
60417;BME280;46263;44.726;10.396;2023-03-01T03:44:20;100756.72;;;8.27;56.48
60417;BME280;46263;44.726;10.396;2023-03-01T03:46:46;100753.16;;;8.21;56.85
60417;BME280;46263;44.726;10.396;2023-03-01T03:49:12;100756.44;;;8.19;55.90
60417;BME280;46263;44.726;10.396;2023-03-01T03:51:37;100754.91;;;8.18;58.30
60417;BME280;46263;44.726;10.396;2023-03-01T03:54:02;100761.22;;;8.19;57.92
60417;BME280;46263;44.726;10.396;2023-03-01T03:56:28;100748.09;;;8.25;57.33
60417;BME280;46263;44.726;10.396;2023-03-01T03:58:54;100754.13;;;8.18;56.52
60417;BME280;46263;44.726;10.396;2023-03-01T04:01:19;100757.69;;;8.24;56.75
60417;BME280;46263;44.726;10.396;2023-03-01T04:03:45;100757.97;;;8.26;57.42
60417;BME280;46263;44.726;10.396;2023-03-01T04:06:13;100752.38;;;8.20;57.29
60417;BME280;46263;44.726;10.396;2023-03-01T04:08:38;100751.63;;;8.20;56.01
60417;BME280;46263;44.726;10.396;2023-03-01T04:11:04;100747.06;;;8.22;57.03
60417;BME280;46263;44.726;10.396;2023-03-01T04:13:50;100747.06;;;8.22;57.94
60417;BME280;46263;44.726;10.396;2023-03-01T04:16:16;100747.03;;;8.17;54.70
60417;BME280;46263;44.726;10.396;2023-03-01T04:18:43;100744.78;;;8.21;54.32
60417;BME280;46263;44.726;10.396;2023-03-01T04:21:09;100744.00;;;8.15;54.69
60417;BME280;46263;44.726;10.396;2023-03-01T04:23:35;100741.13;;;8.04;54.78
60417;BME280;46263;44.726;10.396;2023-03-01T04:26:01;100737.53;;;7.98;55.43
60417;BME280;46263;44.726;10.396;2023-03-01T04:28:31;100741.03;;;7.93;55.70
60417;BME280;46263;44.726;10.396;2023-03-01T04:31:02;100737.91;;;7.80;56.41
60417;BME280;46263;44.726;10.396;2023-03-01T04:33:38;100739.63;;;7.72;57.30
60417;BME280;46263;44.726;10.396;2023-03-01T04:36:04;100746.72;;;7.73;57.84
60417;BME280;46263;44.726;10.396;2023-03-01T04:38:30;100735.31;;;7.71;58.07
60417;BME280;46263;44.726;10.396;2023-03-01T04:40:55;100742.13;;;7.70;58.13
60417;BME280;46263;44.726;10.396;2023-03-01T04:43:21;100738.09;;;7.71;58.16
60417;BME280;46263;44.726;10.396;2023-03-01T04:45:46;100744.69;;;7.74;58.57
60417;BME280;46263;44.726;10.396;2023-03-01T04:48:12;100737.41;;;7.82;58.67
60417;BME280;46263;44.726;10.396;2023-03-01T04:50:37;100744.47;;;7.77;58.19
60417;BME280;46263;44.726;10.396;2023-03-01T04:53:03;100737.91;;;7.80;57.80
60417;BME280;46263;44.726;10.396;2023-03-01T04:55:29;100733.59;;;7.79;57.90
60417;BME280;46263;44.726;10.396;2023-03-01T04:57:55;100741.16;;;7.73;58.42
60417;BME280;46263;44.726;10.396;2023-03-01T05:00:21;100740.38;;;7.73;58.14
60417;BME280;46263;44.726;10.396;2023-03-01T05:02:54;100734.34;;;7.80;58.33
60417;BME280;46263;44.726;10.396;2023-03-01T05:05:34;100747.56;;;7.85;59.00
60417;BME280;46263;44.726;10.396;2023-03-01T05:08:03;100742.78;;;7.90;58.51
60417;BME280;46263;44.726;10.396;2023-03-01T05:10:30;100737.78;;;7.94;59.35
60417;BME280;46263;44.726;10.396;2023-03-01T05:12:57;100735.00;;;8.00;58.39
60417;BME280;46263;44.726;10.396;2023-03-01T05:15:23;100729.94;;;7.98;58.60
60417;BME280;46263;44.726;10.396;2023-03-01T05:17:51;100732.97;;;7.95;57.95
60417;BME280;46263;44.726;10.396;2023-03-01T05:20:17;100738.75;;;7.91;57.89
60417;BME280;46263;44.726;10.396;2023-03-01T05:22:43;100736.28;;;7.99;58.09
60417;BME280;46263;44.726;10.396;2023-03-01T05:25:09;100732.44;;;7.96;57.09
60417;BME280;46263;44.726;10.396;2023-03-01T05:27:35;100742.09;;;8.01;56.95
60417;BME280;46263;44.726;10.396;2023-03-01T05:30:02;100732.25;;;8.05;57.69
60417;BME280;46263;44.726;10.396;2023-03-01T05:32:49;100733.78;;;8.06;58.00
60417;BME280;46263;44.726;10.396;2023-03-01T05:35:21;100733.03;;;8.06;57.12
60417;BME280;46263;44.726;10.396;2023-03-01T05:37:48;100731.75;;;8.01;57.32
60417;BME280;46263;44.726;10.396;2023-03-01T05:40:22;100733.53;;;8.04;58.09
60417;BME280;46263;44.726;10.396;2023-03-01T05:42:52;100734.81;;;8.09;57.63
60417;BME280;46263;44.726;10.396;2023-03-01T05:45:18;100731.03;;;8.12;57.06
60417;BME280;46263;44.726;10.396;2023-03-01T05:47:46;100723.25;;;8.16;56.38
60417;BME280;46263;44.726;10.396;2023-03-01T05:50:14;100731.16;;;8.23;57.46
60417;BME280;46263;44.726;10.396;2023-03-01T05:52:48;100729.34;;;8.20;58.25
60417;BME280;46263;44.726;10.396;2023-03-01T05:55:18;100740.75;;;8.22;56.95
60417;BME280;46263;44.726;10.396;2023-03-01T05:57:44;100738.72;;;8.22;58.06
60417;BME280;46263;44.726;10.396;2023-03-01T06:00:10;100736.69;;;8.17;57.75
60417;BME280;46263;44.726;10.396;2023-03-01T06:02:37;100743.50;;;8.16;55.99
60417;BME280;46263;44.726;10.396;2023-03-01T06:05:04;100744.22;;;8.11;56.82
60417;BME280;46263;44.726;10.396;2023-03-01T06:07:30;100737.69;;;8.20;56.93
60417;BME280;46263;44.726;10.396;2023-03-01T06:09:56;100748.56;;;8.18;57.07
60417;BME280;46263;44.726;10.396;2023-03-01T06:12:21;100734.19;;;8.25;57.02
60417;BME280;46263;44.726;10.396;2023-03-01T06:14:47;100735.00;;;8.31;57.43
60417;BME280;46263;44.726;10.396;2023-03-01T06:17:13;100731.94;;;8.29;58.29
60417;BME280;46263;44.726;10.396;2023-03-01T06:19:39;100737.03;;;8.36;56.85
60417;BME280;46263;44.726;10.396;2023-03-01T06:22:04;100745.66;;;8.38;58.08
60417;BME280;46263;44.726;10.396;2023-03-01T06:24:29;100737.78;;;8.36;58.57
60417;BME280;46263;44.726;10.396;2023-03-01T06:26:55;100738.00;;;8.33;58.25
60417;BME280;46263;44.726;10.396;2023-03-01T06:29:21;100746.13;;;8.31;59.26
60417;BME280;46263;44.726;10.396;2023-03-01T06:31:48;100746.63;;;8.35;59.20
60417;BME280;46263;44.726;10.396;2023-03-01T06:34:14;100741.63;;;8.39;57.88
60417;BME280;46263;44.726;10.396;2023-03-01T06:36:39;100741.38;;;8.42;57.17
60417;BME280;46263;44.726;10.396;2023-03-01T06:39:05;100747.94;;;8.39;57.33
60417;BME280;46263;44.726;10.396;2023-03-01T06:41:31;100746.91;;;8.37;57.10
60417;BME280;46263;44.726;10.396;2023-03-01T06:43:56;100751.47;;;8.34;58.64
60417;BME280;46263;44.726;10.396;2023-03-01T06:46:22;100752.22;;;8.35;57.56
60417;BME280;46263;44.726;10.396;2023-03-01T06:48:47;100754.75;;;8.38;57.55
60417;BME280;46263;44.726;10.396;2023-03-01T06:51:13;100755.31;;;8.42;57.44
60417;BME280;46263;44.726;10.396;2023-03-01T06:53:38;100752.28;;;8.46;57.63
60417;BME280;46263;44.726;10.396;2023-03-01T06:56:04;100756.59;;;8.47;58.15
60417;BME280;46263;44.726;10.396;2023-03-01T06:58:29;100763.41;;;8.46;58.37
60417;BME280;46263;44.726;10.396;2023-03-01T07:00:55;100753.28;;;8.48;57.50
60417;BME280;46263;44.726;10.396;2023-03-01T07:03:20;100757.06;;;8.45;57.60
60417;BME280;46263;44.726;10.396;2023-03-01T07:05:48;100758.84;;;8.43;57.75
60417;BME280;46263;44.726;10.396;2023-03-01T07:08:14;100761.53;;;8.26;58.42
60417;BME280;46263;44.726;10.396;2023-03-01T07:10:40;100763.31;;;8.29;59.04
60417;BME280;46263;44.726;10.396;2023-03-01T07:13:05;100769.63;;;8.24;60.03
60417;BME280;46263;44.726;10.396;2023-03-01T07:15:32;100769.94;;;8.32;61.43
60417;BME280;46263;44.726;10.396;2023-03-01T07:18:00;100755.38;;;8.17;60.08
60417;BME280;46263;44.726;10.396;2023-03-01T07:20:26;100761.47;;;8.15;60.17
60417;BME280;46263;44.726;10.396;2023-03-01T07:22:53;100757.53;;;8.02;60.72
60417;BME280;46263;44.726;10.396;2023-03-01T07:25:19;100755.63;;;7.83;61.84
60417;BME280;46263;44.726;10.396;2023-03-01T07:27:49;100761.75;;;7.87;64.68
60417;BME280;46263;44.726;10.396;2023-03-01T07:30:15;100755.31;;;8.06;63.65
60417;BME280;46263;44.726;10.396;2023-03-01T07:32:41;100754.75;;;8.02;63.12
60417;BME280;46263;44.726;10.396;2023-03-01T07:35:07;100755.25;;;8.00;63.06
60417;BME280;46263;44.726;10.396;2023-03-01T07:37:32;100755.72;;;7.93;62.78
60417;BME280;46263;44.726;10.396;2023-03-01T07:39:57;100751.28;;;7.76;63.12
60417;BME280;46263;44.726;10.396;2023-03-01T07:42:23;100761.75;;;7.87;63.26
60417;BME280;46263;44.726;10.396;2023-03-01T07:44:48;100750.75;;;7.72;61.90
60417;BME280;46263;44.726;10.396;2023-03-01T07:47:14;100741.97;;;7.48;63.52
60417;BME280;46263;44.726;10.396;2023-03-01T07:49:39;100751.50;;;7.73;63.57
60417;BME280;46263;44.726;10.396;2023-03-01T07:52:05;100747.50;;;7.79;63.82
60417;BME280;46263;44.726;10.396;2023-03-01T07:54:30;100744.41;;;7.72;63.89
60417;BME280;46263;44.726;10.396;2023-03-01T07:56:56;100739.50;;;7.87;63.54
60417;BME280;46263;44.726;10.396;2023-03-01T07:59:22;100737.34;;;7.71;63.24
60417;BME280;46263;44.726;10.396;2023-03-01T08:01:54;100734.19;;;7.58;63.78
60417;BME280;46263;44.726;10.396;2023-03-01T08:04:19;100729.63;;;7.55;64.29
60417;BME280;46263;44.726;10.396;2023-03-01T08:06:45;100728.28;;;7.76;64.04
60417;BME280;46263;44.726;10.396;2023-03-01T08:09:10;100731.91;;;7.56;64.69
60417;BME280;46263;44.726;10.396;2023-03-01T08:11:35;100729.97;;;7.37;65.11
60417;BME280;46263;44.726;10.396;2023-03-01T08:14:01;100737.47;;;7.31;65.44
60417;BME280;46263;44.726;10.396;2023-03-01T08:16:26;100730.25;;;7.39;65.97
60417;BME280;46263;44.726;10.396;2023-03-01T08:18:52;100733.44;;;7.26;64.90
60417;BME280;46263;44.726;10.396;2023-03-01T08:21:18;100730.09;;;7.22;65.52
60417;BME280;46263;44.726;10.396;2023-03-01T08:23:44;100730.69;;;7.07;66.53
60417;BME280;46263;44.726;10.396;2023-03-01T08:26:18;100719.72;;;7.23;65.30
60417;BME280;46263;44.726;10.396;2023-03-01T08:28:44;100717.78;;;7.29;65.11
60417;BME280;46263;44.726;10.396;2023-03-01T08:31:34;100718.31;;;7.08;65.93
60417;BME280;46263;44.726;10.396;2023-03-01T08:34:06;100713.06;;;7.10;65.57
60417;BME280;46263;44.726;10.396;2023-03-01T08:36:40;100718.31;;;7.08;65.74
60417;BME280;46263;44.726;10.396;2023-03-01T08:39:07;100711.53;;;7.09;65.26
60417;BME280;46263;44.726;10.396;2023-03-01T08:41:33;100715.06;;;7.09;65.79
60417;BME280;46263;44.726;10.396;2023-03-01T08:43:59;100704.44;;;7.08;65.96
60417;BME280;46263;44.726;10.396;2023-03-01T08:46:26;100692.44;;;7.21;65.77
60417;BME280;46263;44.726;10.396;2023-03-01T08:48:52;100695.75;;;7.25;65.82
60417;BME280;46263;44.726;10.396;2023-03-01T08:51:19;100698.16;;;7.12;65.55
60417;BME280;46263;44.726;10.396;2023-03-01T08:53:45;100678.53;;;7.21;65.27
60417;BME280;46263;44.726;10.396;2023-03-01T08:56:11;100686.25;;;7.37;64.91
60417;BME280;46263;44.726;10.396;2023-03-01T08:58:37;100681.53;;;7.49;65.17
60417;BME280;46263;44.726;10.396;2023-03-01T09:01:11;100677.50;;;7.50;65.20
60417;BME280;46263;44.726;10.396;2023-03-01T09:03:38;100677.28;;;7.53;64.96
60417;BME280;46263;44.726;10.396;2023-03-01T09:06:05;100683.38;;;7.57;65.21
60417;BME280;46263;44.726;10.396;2023-03-01T09:08:34;100680.06;;;7.53;65.91
60417;BME280;46263;44.726;10.396;2023-03-01T09:11:02;100676.81;;;7.55;65.52
60417;BME280;46263;44.726;10.396;2023-03-01T09:13:28;100669.66;;;7.48;65.25
60417;BME280;46263;44.726;10.396;2023-03-01T09:15:57;100670.31;;;7.32;65.44
60417;BME280;46263;44.726;10.396;2023-03-01T09:18:22;100669.13;;;7.44;65.25
60417;BME280;46263;44.726;10.396;2023-03-01T09:20:48;100665.09;;;7.45;65.53
60417;BME280;46263;44.726;10.396;2023-03-01T09:23:13;100672.97;;;7.52;65.82
60417;BME280;46263;44.726;10.396;2023-03-01T09:25:38;100665.03;;;7.34;64.25
60417;BME280;46263;44.726;10.396;2023-03-01T09:28:04;100674.06;;;7.29;64.63
60417;BME280;46263;44.726;10.396;2023-03-01T09:30:29;100664.25;;;7.34;64.72
60417;BME280;46263;44.726;10.396;2023-03-01T09:32:56;100670.59;;;7.34;64.52
60417;BME280;46263;44.726;10.396;2023-03-01T09:35:21;100664.53;;;7.36;64.94
60417;BME280;46263;44.726;10.396;2023-03-01T09:37:47;100659.88;;;7.22;65.25
60417;BME280;46263;44.726;10.396;2023-03-01T09:40:18;100663.84;;;7.15;66.01
60417;BME280;46263;44.726;10.396;2023-03-01T09:43:08;100664.91;;;7.23;66.00
60417;BME280;46263;44.726;10.396;2023-03-01T09:45:41;100656.63;;;7.29;65.92
60417;BME280;46263;44.726;10.396;2023-03-01T09:48:17;100649.41;;;7.42;66.13
60417;BME280;46263;44.726;10.396;2023-03-01T09:50:44;100639.00;;;7.37;65.97
60417;BME280;46263;44.726;10.396;2023-03-01T09:53:17;100641.03;;;7.37;65.74
60417;BME280;46263;44.726;10.396;2023-03-01T09:55:51;100651.69;;;7.44;65.36
60417;BME280;46263;44.726;10.396;2023-03-01T09:58:45;100651.13;;;7.34;65.48
60417;BME280;46263;44.726;10.396;2023-03-01T10:01:25;100641.38;;;7.19;66.42
60417;BME280;46263;44.726;10.396;2023-03-01T10:06:22;100632.09;;;7.27;66.28
60417;BME280;46263;44.726;10.396;2023-03-01T10:08:56;100626.53;;;7.27;66.57
60417;BME280;46263;44.726;10.396;2023-03-01T10:11:38;100619.25;;;7.35;66.01
60417;BME280;46263;44.726;10.396;2023-03-01T10:14:18;100619.06;;;7.44;66.10
60417;BME280;46263;44.726;10.396;2023-03-01T10:16:52;100612.78;;;7.44;66.39
60417;BME280;46263;44.726;10.396;2023-03-01T10:19:31;100603.44;;;7.47;66.37
60417;BME280;46263;44.726;10.396;2023-03-01T10:22:03;100605.16;;;7.39;65.53
60417;BME280;46263;44.726;10.396;2023-03-01T10:24:34;100608.50;;;7.48;65.38
60417;BME280;46263;44.726;10.396;2023-03-01T10:27:24;100605.16;;;7.39;65.58
60417;BME280;46263;44.726;10.396;2023-03-01T10:32:49;100601.19;;;7.51;65.76
60417;BME280;46263;44.726;10.396;2023-03-01T10:35:21;100596.03;;;7.38;65.17
60417;BME280;46263;44.726;10.396;2023-03-01T10:38:06;100584.75;;;7.47;65.21
60417;BME280;46263;44.726;10.396;2023-03-01T10:40:33;100586.00;;;7.46;65.36
60417;BME280;46263;44.726;10.396;2023-03-01T10:43:02;100587.72;;;7.38;65.68
60417;BME280;46263;44.726;10.396;2023-03-01T10:45:37;100593.16;;;7.64;65.45
60417;BME280;46263;44.726;10.396;2023-03-01T10:48:11;100586.59;;;7.61;64.98
60417;BME280;46263;44.726;10.396;2023-03-01T10:50:39;100577.03;;;7.68;64.79
60417;BME280;46263;44.726;10.396;2023-03-01T10:56:17;100568.28;;;7.91;64.47
60417;BME280;46263;44.726;10.396;2023-03-01T11:01:32;100568.97;;;7.75;65.08
60417;BME280;46263;44.726;10.396;2023-03-01T11:04:17;100572.75;;;7.72;64.81
60417;BME280;46263;44.726;10.396;2023-03-01T11:06:43;100559.38;;;7.82;65.20
60417;BME280;46263;44.726;10.396;2023-03-01T11:09:21;100563.44;;;7.86;64.96
60417;BME280;46263;44.726;10.396;2023-03-01T11:11:55;100553.53;;;7.74;64.90
60417;BME280;46263;44.726;10.396;2023-03-01T11:14:23;100555.06;;;7.75;65.22
60417;BME280;46263;44.726;10.396;2023-03-01T11:17:01;100546.94;;;7.66;65.58
60417;BME280;46263;44.726;10.396;2023-03-01T11:19:27;100548.50;;;7.78;65.40
60417;BME280;46263;44.726;10.396;2023-03-01T11:22:07;100552.34;;;7.91;65.51
60417;BME280;46263;44.726;10.396;2023-03-01T11:24:39;100560.97;;;7.99;64.74
60417;BME280;46263;44.726;10.396;2023-03-01T11:27:15;100557.44;;;7.98;65.32
60417;BME280;46263;44.726;10.396;2023-03-01T11:29:46;100563.22;;;7.95;64.98
60417;BME280;46263;44.726;10.396;2023-03-01T11:32:17;100562.25;;;8.09;64.67
60417;BME280;46263;44.726;10.396;2023-03-01T11:42:48;100572.91;;;8.10;65.70
60417;BME280;46263;44.726;10.396;2023-03-01T11:45:17;100582.13;;;7.80;65.77
60417;BME280;46263;44.726;10.396;2023-03-01T11:48:00;100576.88;;;7.93;66.13
60417;BME280;46263;44.726;10.396;2023-03-01T11:50:46;100575.03;;;7.74;66.97
60417;BME280;46263;44.726;10.396;2023-03-01T11:56:38;100575.31;;;7.81;67.44
60417;BME280;46263;44.726;10.396;2023-03-01T12:02:20;100586.00;;;7.93;67.94
60417;BME280;46263;44.726;10.396;2023-03-01T12:07:46;100577.91;;;7.90;67.37
60417;BME280;46263;44.726;10.396;2023-03-01T12:10:25;100577.69;;;7.99;68.22
60417;BME280;46263;44.726;10.396;2023-03-01T12:22:03;100572.16;;;7.57;67.28
60417;BME280;46263;44.726;10.396;2023-03-01T12:38:49;100576.28;;;7.67;67.93
60417;BME280;46263;44.726;10.396;2023-03-01T12:49:40;100570.50;;;7.34;69.51
60417;BME280;46263;44.726;10.396;2023-03-01T12:52:24;100558.75;;;7.19;70.08
60417;BME280;46263;44.726;10.396;2023-03-01T12:54:53;100554.06;;;7.36;69.74
60417;BME280;46263;44.726;10.396;2023-03-01T12:57:47;100560.94;;;7.41;69.28
60417;BME280;46263;44.726;10.396;2023-03-01T13:03:12;100564.13;;;7.28;68.80
60417;BME280;46263;44.726;10.396;2023-03-01T13:11:17;100545.31;;;7.49;68.93
60417;BME280;46263;44.726;10.396;2023-03-01T13:13:44;100545.06;;;7.52;68.46
60417;BME280;46263;44.726;10.396;2023-03-01T13:16:38;100539.22;;;7.45;68.66
60417;BME280;46263;44.726;10.396;2023-03-01T13:19:17;100530.19;;;7.55;69.03
60417;BME280;46263;44.726;10.396;2023-03-01T13:21:44;100532.22;;;7.60;69.08
60417;BME280;46263;44.726;10.396;2023-03-01T13:24:33;100520.09;;;7.63;68.35
60417;BME280;46263;44.726;10.396;2023-03-01T13:37:45;100504.72;;;7.20;68.28
60417;BME280;46263;44.726;10.396;2023-03-01T13:42:55;100506.09;;;7.00;70.54
60417;BME280;46263;44.726;10.396;2023-03-01T13:45:40;100532.47;;;7.15;70.57
60417;BME280;46263;44.726;10.396;2023-03-01T13:48:26;100550.16;;;7.12;70.15
60417;BME280;46263;44.726;10.396;2023-03-01T13:50:55;100552.53;;;7.30;70.50
60417;BME280;46263;44.726;10.396;2023-03-01T13:53:25;100558.34;;;7.26;69.64
60417;BME280;46263;44.726;10.396;2023-03-01T13:55:55;100555.34;;;7.35;69.32
60417;BME280;46263;44.726;10.396;2023-03-01T13:58:25;100549.56;;;7.39;69.43
60417;BME280;46263;44.726;10.396;2023-03-01T14:01:01;100540.50;;;7.44;68.92
60417;BME280;46263;44.726;10.396;2023-03-01T14:03:27;100548.63;;;7.53;68.96
60417;BME280;46263;44.726;10.396;2023-03-01T14:06:06;100546.09;;;7.49;68.12
60417;BME280;46263;44.726;10.396;2023-03-01T14:08:32;100549.25;;;7.31;68.58
60417;BME280;46263;44.726;10.396;2023-03-01T14:16:47;100543.66;;;7.26;69.26
60417;BME280;46263;44.726;10.396;2023-03-01T14:19:18;100547.91;;;7.21;68.77
60417;BME280;46263;44.726;10.396;2023-03-01T14:21:46;100548.78;;;7.38;69.10
60417;BME280;46263;44.726;10.396;2023-03-01T14:24:21;100544.94;;;7.30;67.96
60417;BME280;46263;44.726;10.396;2023-03-01T14:26:47;100544.75;;;7.39;67.43
60417;BME280;46263;44.726;10.396;2023-03-01T14:29:33;100549.72;;;7.24;68.60
60417;BME280;46263;44.726;10.396;2023-03-01T14:32:20;100545.69;;;7.25;68.28
60417;BME280;46263;44.726;10.396;2023-03-01T14:34:50;100537.00;;;7.12;68.65